首页
METAR-TAF:

METAR-TAF

机场 :

赛义德·易卜拉欣王子国际机场

莫洛尼, 葛摩

纬度: 11-32S, 经度: 043-16E, 海拔: 29米

METAR: 丢失

时间: 09:10 (06:10 UTC)

预报

该预报发布于1小时和10分钟前的05:00 UTC
预报有效从20日的 06点(UTC)到 21日的 12点(UTC)
风速5节,风向南转西南
能见度10公里或以上
少量云层高于2000英尺
成为
从 20日的 06点(UTC)到 20日的 08点(UTC)
风速17节,风向南转西南
成为
从 20日的 16点(UTC)到 20日的 18点(UTC)
风速7节,风向东转东南
成为
从 21日的 05点(UTC)到 21日的 07点(UTC)
风速20节,风向南转西南

TAF: FMCH 200500Z 2006/2112 21005KT 9999 FEW020 BECMG 2006/2008 20017KT BECMG 2016/2018 12007KT BECMG 2105/2107 20020KT

超过4000个机场的气象观测和天气预报(METAR&TAF报告)。

可查询的气象台以黄色和红色小点在地图上表示。

将鼠标移到小点上方,可查看气象台名称。

然后点击查看天气观测和预报。

如需切换地图:点击带黑十字的绿色按钮放大地图;点击带横线的绿色按钮缩小地图;或者点击绿色箭头查看邻近地区的地图。


METAR-TAF: